METAR Data
IDs: Format: Raw Decoded Include TAF

Data at: 2146 UTC 18 Apr 2021

KCRG 182102Z 33005KT 9SM -RA SCT022 BKN037 OVC065 22/18 A2988 RMK AO2 LTG DSNT N AND NE RAB2054 P0000 T02220183 $
KCRG 182053Z 33006KT 10SM BKN022 BKN033 OVC049 23/18 A2988 RMK AO2 LTG DSNT N AND NE SLP118 60000 T02280183 56004 $
KCRG 182048Z 30007KT 10SM BKN022 BKN027 OVC049 23/18 A2989 RMK AO2 LTG DSNT NW-NE $
KCRG 182025Z 27008KT 10SM SCT024 BKN049 OVC080 23/18 A2987 RMK AO2 LTG DSNT N AND NW T02330183 $
KCRG 181953Z 25007KT 10SM BKN022 BKN060 OVC090 23/18 A2987 RMK AO2 LTG DSNT NW SLP114 T02330183 $
KCRG 181913Z 27007KT 10SM FEW015 SCT021 23/19 A2987 RMK AO2 T02330189 $
KCRG 181853Z 24008KT 10SM BKN016 OVC021 23/19 A2989 RMK AO2 RAE30 SLP122 P0000 T02280189 $
KCRG 181753Z 23008KT 10SM -RA BKN018 OVC055 22/19 A2989 RMK AO2 RAB1656E06B46 SLP122 P0000 60044 T02170189 10228 20194 56019 $
KCRG 181733Z 25008KT 10SM BKN015 OVC022 22/18 A2990 RMK AO2 RAB1656E06 P0000 T02220183 $
KCRG 181653Z 22009KT 10SM BKN014 OVC022 22/19 A2991 RMK AO2 RAE1558 SLP128 P0000 T02170189 $
KCRG 181642Z 24011KT 10SM OVC014 22/19 A2993 RMK AO2 RAE1558 P0000 T02220194 $
KCRG 181553Z 20007KT 10SM -RA BKN008 BKN050 OVC110 21/19 A2993 RMK AO2 SLP133 P0008 T02060194 $
KCRG 181453Z 21008KT 8SM RA BKN008 OVC110 20/18 A2995 RMK AO2 SLP141 P0007 60036 T02000183 55002 $
KCRG 181353Z 21004KT 6SM RA BR BKN008 BKN075 OVC100 19/18 A2993 RMK AO2 SLP134 P0015 T01940183 $
KCRG 181302Z 27003KT 2SM +RA BR BKN008 BKN075 OVC100 19/18 A2995 RMK AO2 P0003 T01940183 $
KCRG 181253Z 24005KT 2 1/2SM +RA BR FEW008 BKN075 OVC090 19/18 A2995 RMK AO2 RAB13 SLP142 P0014 T01940183 $
KCRG 181249Z 25004KT 2SM +RA BR FEW055 SCT075 OVC095 19/18 A2995 RMK AO2 RAB13 P0012 $
KCRG 181240Z 28004KT 3SM RA BR FEW005 SCT070 OVC100 19/18 A2995 RMK AO2 RAB13 P0009 T01940183 $
KCRG 181229Z 24005KT 2 1/2SM RA BR FEW055 SCT075 OVC100 19/18 A2994 RMK AO2 RAB13 P0006 T01940183 $
KCRG 181153Z 16004KT 8SM FEW005 SCT100 BKN120 19/18 A2988 RMK AO2 RAE39 SLP119 P0003 60026 70080 T01940183 10200 20194 50005 $
KCRG 181138Z 15003KT 9SM -RA FEW006 SCT095 BKN110 19/18 A2989 RMK AO2 P0003 T01940183 $
KCRG 181105Z 23006KT 9SM -RA SCT014 BKN046 OVC110 19/18 A2993 RMK AO2 P0000 T01940183 $
KCRG 181053Z 22004KT 4SM RA BR BKN010 BKN021 OVC100 19/18 A2992 RMK AO2 RAE21B37 SLP130 P0009 T01940183 $
KCRG 181029Z AUTO 25005KT 10SM OVC012 19/18 A2991 RMK AO2 RAE21 P0004 T01940183 $
KCRG 181017Z AUTO 28004KT 10SM -RA SCT010 BKN015 OVC075 19/18 A2990 RMK AO2 P0004 T01940183 $
KCRG 180953Z AUTO 26005KT 8SM -RA SCT013 BKN080 OVC095 19/18 A2989 RMK AO2 RAB38 SLP122 P0002 T01940183 $
KCRG 180931Z AUTO 29006KT 10SM BKN013 OVC080 19/18 A2990 RMK AO2 PRESRR T01940183 $
KCRG 180853Z AUTO 22003KT 10SM BKN085 19/18 A2987 RMK AO2 RAE07 SLP114 P0000 60012 T01940183 58004 $
KCRG 180753Z AUTO 19003KT 9SM -RA FEW010 SCT070 BKN110 19/18 A2985 RMK AO2 RAB0655 SLP109 P0012 T01940183 $
KCRG 180653Z AUTO 28006KT 10SM FEW023 OVC090 20/18 A2990 RMK AO2 SLP124 T02000183 $
KCRG 180553Z AUTO 23003KT 10SM BKN085 BKN110 20/18 A2988 RMK AO2 SLP118 60051 T02000183 10206 20194 58006 $
KCRG 180453Z AUTO 25003KT 10SM OVC095 20/18 A2990 RMK AO2 RAB29E43 SLP125 P0000 T02000183 402440172 $
KCRG 180353Z AUTO 21006KT 10SM OVC090 20/18 A2990 RMK AO2 RAB03E17 SLP123 P0001 T02000183 $
KCRG 180253Z AUTO 25006KT 10SM SCT031 OVC110 20/18 A2990 RMK AO2 RAE53 SLP124 P0007 60050 T02000183 53013 $
KCRG 180153Z AUTO 28007KT 6SM RA BR OVC070 20/18 A2989 RMK AO2 LTG DSNT SE AND SW SLP121 P0013 T02000183 $
KCRG 180053Z 20006KT 3SM +RA BR FEW049 OVC070 20/18 A2987 RMK AO2 LTG DSNT NE AND W RAE03B13 TSB13E33 SLP114 P0030 T02000183 $
KCRG 180038Z 18006KT 3SM +RA BR SCT037 BKN050 OVC065 19/18 A2987 RMK AO2 LTG DSNT W AND NW RAE03B13 TSB13E33 P0024 T01940183 $
KCRG 180019Z 24004KT 3SM +TSRA BR FEW036 OVC050 20/18 A2988 RMK AO2 LTG DSNT W AND NW RAE03B13 TSB13 PRESRR P0007 T02000178 $
KCRG 180010Z 15008KT 10SM VCTS BKN034 OVC046 20/18 A2985 RMK AO2 LTG DSNT W RAE03 P0000 T02000178 $
KCRG 172353Z 09005KT 5SM -RA BR BKN034 OVC046 20/18 A2986 RMK AO2 LTG DSNT W RAB25 SLP112 P0003 60003 T02000178 10244 20200 51015 $
KCRG 172253Z 00000KT 10SM SCT070 BKN100 21/17 A2985 RMK AO2 LTG DSNT N AND NW SLP108 T02110172 $
KCRG 172153Z 09005KT 10SM CLR 22/17 A2984 RMK AO2 SLP104 T02220167 $
KCRG 172053Z 09007KT 10SM FEW055 23/17 A2982 RMK AO2 SLP097 T02330172 58018 $
KCRG 171953Z AUTO 08007KT 10SM BKN024 OVC060 23/17 A2985 RMK AO2 SLP106 T02280167 $
KCRG 171853Z 11003KT 10SM OVC023 23/17 A2987 RMK AO2 SLP113 T02280167 $
KCRG 171753Z 09003KT 10SM OVC020 22/16 A2987 RMK AO2 SLP115 60000 T02220161 10228 20178 58017 $
KCRG 171653Z 04005KT 9SM OVC020 21/16 A2990 RMK AO2 SLP123 T02110161 $
KCRG 171553Z 06007KT 10SM OVC020 21/16 A2991 RMK AO2 SLP128 T02060161 $
KCRG 171453Z 05004KT 10SM FEW015 OVC022 19/17 A2992 RMK AO2 RAE1357 SLP132 P0000 60000 T01940167 53020 $
KCRG 171353Z 00000KT 10SM -RA OVC019 19/17 A2990 RMK AO2 RAB45 SLP123 P0000 T01890167 $
KCRG 171253Z 14003KT 10SM OVC020 18/17 A2988 RMK AO2 RAB1155E16 SLP117 P0000 T01830172 $
KCRG 171153Z 00000KT 10SM OVC019 18/16 A2986 RMK AO2 RAB18E46 SLP112 P0001 60004 70074 T01780161 10178 20172 53003 $
KCRG 171053Z 00000KT 9SM OVC019 18/17 A2986 RMK AO2 SLP109 T01780167 $
KCRG 170953Z AUTO 00000KT 8SM OVC020 18/17 A2985 RMK AO2 RAE0856 SLP106 P0000 T01780167 $